Time;durP1;ratioP1;P1;durP2;ratioP2;P2;SDS_P1;SDS_P2;PMS_P1;PMS_P2;Temp;Humidity;BMP_temperature;BMP_pressure;BME280_temperature;BME280_humidity;BME280_pressure;Samples;Min_cycle;Max_cycle;Signal;HPM_P1;HPM_P2
2022/11/15 00:01:22;;;;;;;;;;;;;;;24.34;48.16;94072.56;4966021;28;7306;-60
2022/11/15 00:03:51;;;;;;;;;;;;;;;24.34;47.67;94070.59;4954054;28;9286;-60
2022/11/15 00:06:21;;;;;;;;;;;;;;;24.34;47.92;94069.84;4954727;28;7287;-61
2022/11/15 00:08:50;;;;;;;;;;;;;;;24.34;47.74;94061.59;4971669;28;7452;-60
2022/11/15 00:11:15;;;;;;;;;;;;;;;24.35;47.69;94065.84;4955594;28;7003;-61
2022/11/15 00:13:41;;;;;;;;;;;;;;;24.32;47.47;94062.09;4975603;28;7128;-61
2022/11/15 00:16:14;;;;;;;;;;;;;;;24.33;48.17;94063.59;4974844;28;7087;-61
2022/11/15 00:18:44;;;;;;;;;;;;;;;24.33;47.50;94065.59;4966531;28;7313;-61
2022/11/15 00:21:14;;;;;;;;;;;;;;;24.34;47.78;94053.34;4955228;28;7076;-60
2022/11/15 00:23:49;;;;;;;;;;;;;;;24.34;47.64;94054.09;4974342;28;7945;-60
2022/11/15 00:26:23;;;;;;;;;;;;;;;24.33;47.82;94052.63;4941243;28;7236;-60
2022/11/15 00:28:58;;;;;;;;;;;;;;;24.30;47.48;94045.38;4964015;28;7484;-60
2022/11/15 00:31:36;;;;;;;;;;;;;;;24.33;47.58;94043.63;4973518;28;9302;-60
2022/11/15 00:34:03;;;;;;;;;;;;;;;24.29;47.57;94038.41;4957447;28;7277;-60
2022/11/15 00:36:34;;;;;;;;;;;;;;;24.33;47.60;94032.63;4968290;28;7372;-60
2022/11/15 00:39:14;;;;;;;;;;;;;;;24.31;47.33;94033.16;4958901;28;7029;-61
2022/11/15 00:41:40;;;;;;;;;;;;;;;24.32;47.68;94031.88;4957071;28;7166;-61
2022/11/15 00:44:14;;;;;;;;;;;;;;;24.31;47.77;94033.16;4970833;28;7101;-60
2022/11/15 00:46:44;;;;;;;;;;;;;;;24.33;47.26;94025.13;4936763;28;7306;-60
2022/11/15 00:49:11;;;;;;;;;;;;;;;24.31;47.71;94033.16;4957335;28;7269;-61
2022/11/15 00:51:37;;;;;;;;;;;;;;;24.33;47.27;94035.38;4956778;28;7841;-61
2022/11/15 00:54:15;;;;;;;;;;;;;;;24.34;47.38;94031.34;4969079;28;7189;-61
2022/11/15 00:56:42;;;;;;;;;;;;;;;24.34;47.94;94029.34;4973847;28;7269;-61
2022/11/15 00:59:07;;;;;;;;;;;;;;;24.32;47.26;94031.13;4959772;28;9583;-61
2022/11/15 01:01:36;;;;;;;;;;;;;;;24.30;47.48;94025.38;4975878;28;7444;-61
2022/11/15 01:04:01;;;;;;;;;;;;;;;24.31;47.99;94030.41;4968630;28;7944;-61
2022/11/15 01:06:31;;;;;;;;;;;;;;;24.31;47.53;94030.41;4974919;28;8037;-60
2022/11/15 01:08:59;;;;;;;;;;;;;;;24.30;47.52;94031.63;4971769;28;7311;-61
2022/11/15 01:11:33;;;;;;;;;;;;;;;24.30;47.52;94036.38;4957068;28;7280;-60
2022/11/15 01:14:29;;;;;;;;;;;;;;;24.30;47.94;94031.63;4955182;28;7043;-61
2022/11/15 01:16:59;;;;;;;;;;;;;;;24.29;47.77;94019.16;4904968;29;7277;-60
2022/11/15 01:19:26;;;;;;;;;;;;;;;24.31;47.77;94016.66;4911725;29;7512;-60
2022/11/15 01:22:01;;;;;;;;;;;;;;;24.31;47.63;94013.16;4914446;29;8377;-60
2022/11/15 01:24:36;;;;;;;;;;;;;;;24.30;47.76;94017.13;4900019;29;7259;-61
2022/11/15 01:27:31;;;;;;;;;;;;;;;24.31;48.00;94011.16;4895346;29;7028;-60
2022/11/15 01:30:08;;;;;;;;;;;;;;;24.30;47.64;94003.41;4867706;29;7042;-61
2022/11/15 01:32:47;;;;;;;;;;;;;;;24.31;47.00;94010.41;4856815;29;7284;-61
2022/11/15 01:35:22;;;;;;;;;;;;;;;24.31;47.51;94002.91;4846306;29;7050;-61
2022/11/15 01:37:48;;;;;;;;;;;;;;;24.32;47.70;94007.13;4864695;29;9070;-60
2022/11/15 01:40:17;;;;;;;;;;;;;;;24.30;47.72;93995.91;4847035;29;7219;-60
2022/11/15 01:42:45;;;;;;;;;;;;;;;24.32;47.18;93985.16;4860745;29;7030;-60
2022/11/15 01:45:15;;;;;;;;;;;;;;;24.33;47.32;93985.91;4856180;29;7408;-60
2022/11/15 01:47:48;;;;;;;;;;;;;;;24.30;48.02;93979.41;4850359;29;9075;-60
2022/11/15 01:50:21;;;;;;;;;;;;;;;24.33;47.30;93978.41;4854616;29;7807;-60
2022/11/15 01:52:49;;;;;;;;;;;;;;;24.32;47.08;93974.16;4879489;29;7281;-60
2022/11/15 01:55:27;;;;;;;;;;;;;;;24.33;47.76;93980.41;4910585;29;7352;-61
2022/11/15 01:58:01;;;;;;;;;;;;;;;24.33;47.75;93980.41;4891826;29;7272;-60
2022/11/15 02:00:29;;;;;;;;;;;;;;;24.34;47.46;93984.63;4891464;29;7052;-61
2022/11/15 02:02:55;;;;;;;;;;;;;;;24.33;48.03;93975.66;4891495;29;8194;-60
2022/11/15 02:05:42;;;;;;;;;;;;;;;24.34;47.38;93970.88;4896618;28;7217;-61
2022/11/15 02:08:19;;;;;;;;;;;;;;;24.32;47.75;93962.41;4971039;28;9402;-60
2022/11/15 02:10:46;;;;;;;;;;;;;;;24.33;47.27;93964.66;4969126;28;7266;-60
2022/11/15 02:13:21;;;;;;;;;;;;;;;24.32;47.61;93968.66;4970418;28;7428;-61
2022/11/15 02:15:53;;;;;;;;;;;;;;;24.34;47.25;93960.63;4972380;28;7971;-61
2022/11/15 02:18:30;;;;;;;;;;;;;;;24.33;47.60;93948.19;4978238;28;7126;-60
2022/11/15 02:21:14;;;;;;;;;;;;;;;24.32;47.69;93952.16;4967153;28;7042;-60
2022/11/15 02:23:58;;;;;;;;;;;;;;;24.33;47.21;93956.41;4952421;28;7300;-61
2022/11/15 02:27:25;;;;;;;;;;;;;;;24.33;47.66;93958.41;4966088;28;8308;-60
2022/11/15 02:30:20;;;;;;;;;;;;;;;24.34;47.59;93957.91;4911035;29;8993;-60
2022/11/15 02:33:19;;;;;;;;;;;;;;;24.33;47.34;93948.19;4889893;29;9830;-60
2022/11/15 02:36:01;;;;;;;;;;;;;;;24.35;46.99;93940.16;4911200;29;9412;-60
2022/11/15 02:38:56;;;;;;;;;;;;;;;24.35;47.41;93945.66;4893414;29;8328;-61
2022/11/15 02:41:47;;;;;;;;;;;;;;;24.39;46.99;93939.88;4895378;29;7363;-61
2022/11/15 02:44:45;;;;;;;;;;;;;;;24.36;46.73;93938.88;4894427;29;9346;-61
2022/11/15 02:47:19;;;;;;;;;;;;;;;24.33;47.33;93923.44;4895324;29;7056;-60
2022/11/15 02:49:51;;;;;;;;;;;;;;;24.33;47.24;93926.19;4895228;29;8722;-61
2022/11/15 02:52:30;;;;;;;;;;;;;;;24.33;47.26;93923.44;4896493;29;7290;-60
2022/11/15 02:54:59;;;;;;;;;;;;;;;24.32;47.76;93924.69;4897567;29;7046;-60
2022/11/15 02:57:45;;;;;;;;;;;;;;;24.34;46.98;93926.91;4893931;29;7030;-60
2022/11/15 03:00:19;;;;;;;;;;;;;;;24.33;47.54;93926.19;4886850;29;7065;-61
2022/11/15 03:03:08;;;;;;;;;;;;;;;24.33;47.28;93912.44;4903325;29;7018;-61
2022/11/15 03:05:46;;;;;;;;;;;;;;;24.32;47.77;93910.94;4916556;28;8510;-61
2022/11/15 03:08:30;;;;;;;;;;;;;;;24.30;46.97;93913.47;4968491;28;8772;-60
2022/11/15 03:11:09;;;;;;;;;;;;;;;24.32;47.37;93913.69;4969845;28;7615;-60
2022/11/15 03:14:07;;;;;;;;;;;;;;;24.33;47.25;93911.69;4966889;28;7083;-60
2022/11/15 03:17:19;;;;;;;;;;;;;;;24.31;47.13;93914.97;4950609;28;8373;-61
2022/11/15 03:20:02;;;;;;;;;;;;;;;24.32;47.63;93910.19;4870458;29;7909;-60
2022/11/15 03:22:40;;;;;;;;;;;;;;;24.30;47.51;93910.72;4868379;29;8788;-61
2022/11/15 03:25:21;;;;;;;;;;;;;;;24.32;47.20;93908.19;4876816;29;8964;-61
2022/11/15 03:28:28;;;;;;;;;;;;;;;24.33;47.27;93904.19;4880119;29;9122;-61
2022/11/15 03:31:46;;;;;;;;;;;;;;;24.33;47.43;93908.94;4801141;29;7184;-61
2022/11/15 03:34:26;;;;;;;;;;;;;;;24.32;47.12;93901.94;4805950;29;7177;-61
2022/11/15 03:37:05;;;;;;;;;;;;;;;24.30;47.10;93894.22;4745679;30;7401;-60
2022/11/15 03:39:44;;;;;;;;;;;;;;;24.32;47.68;93893.69;4742616;30;7029;-61
2022/11/15 03:42:25;;;;;;;;;;;;;;;24.32;47.49;93885.44;4745726;30;9197;-61
2022/11/15 03:45:06;;;;;;;;;;;;;;;24.30;47.38;93883.22;4742696;30;8280;-61
2022/11/15 03:47:43;;;;;;;;;;;;;;;24.30;47.14;93883.22;4748662;30;6967;-60
2022/11/15 03:50:22;;;;;;;;;;;;;;;24.29;47.74;93889.25;4776221;29;7055;-61
2022/11/15 03:53:01;;;;;;;;;;;;;;;24.30;47.61;93887.97;4822127;29;7152;-61
2022/11/15 03:55:36;;;;;;;;;;;;;;;24.30;47.27;93891.47;4823129;29;7686;-60
2022/11/15 03:58:02;;;;;;;;;;;;;;;24.31;47.35;93890.22;4819646;29;7283;-60
2022/11/15 04:00:28;;;;;;;;;;;;;;;24.32;47.58;93886.22;4825087;29;9043;-60
2022/11/15 04:02:54;;;;;;;;;;;;;;;24.31;47.50;93884.72;4823659;29;7028;-61
2022/11/15 04:05:23;;;;;;;;;;;;;;;24.30;47.12;93885.22;4826746;29;7220;-61
2022/11/15 04:07:51;;;;;;;;;;;;;;;24.31;47.46;93887.47;4876606;29;7035;-60
2022/11/15 04:10:28;;;;;;;;;;;;;;;24.31;47.31;93878.47;4879978;29;7595;-61
2022/11/15 04:12:53;;;;;;;;;;;;;;;24.30;47.25;93883.22;4897731;28;7126;-61
2022/11/15 04:15:26;;;;;;;;;;;;;;;24.31;47.19;93878.47;4955653;28;7091;-61
2022/11/15 04:17:55;;;;;;;;;;;;;;;24.31;47.55;93889.47;4974714;28;7285;-61
2022/11/15 04:26:05;;;;;;;;;;;;;;;24.31;47.38;93889.47;4975062;28;7272;-60
2022/11/15 04:28:31;;;;;;;;;;;;;;;24.31;47.64;93887.47;4950013;28;7758;-60
2022/11/15 04:31:02;;;;;;;;;;;;;;;24.30;47.21;93877.72;4956010;28;7258;-60
2022/11/15 04:33:28;;;;;;;;;;;;;;;24.30;47.47;93883.22;4971419;28;7259;-61
2022/11/15 04:38:39;;;;;;;;;;;;;;;24.28;47.60;93880.25;4969038;28;7294;-60
2022/11/15 04:41:05;;;;;;;;;;;;;;;24.30;47.14;93883.22;4960628;28;7463;-60
2022/11/15 04:43:30;;;;;;;;;;;;;;;24.32;47.51;93885.44;4969463;28;7257;-61
2022/11/15 04:45:56;;;;;;;;;;;;;;;24.29;46.80;93879.00;4970640;28;9549;-61
2022/11/15 04:48:23;;;;;;;;;;;;;;;24.32;47.39;93875.22;4952588;28;7056;-61
2022/11/15 04:50:55;;;;;;;;;;;;;;;24.31;47.73;93875.72;4971052;28;7440;-60
2022/11/15 04:53:24;;;;;;;;;;;;;;;24.31;46.97;93875.72;4972369;28;9435;-60
2022/11/15 04:55:57;;;;;;;;;;;;;;;24.29;47.71;93870.75;4950759;28;7478;-61
2022/11/15 04:58:23;;;;;;;;;;;;;;;24.26;47.50;93855.28;4957376;28;9082;-61
2022/11/15 05:00:49;;;;;;;;;;;;;;;24.29;47.49;93862.50;4957776;28;7261;-61
2022/11/15 05:06:16;;;;;;;;;;;;;;;24.29;46.83;93864.50;4971752;28;7459;-61
2022/11/15 05:08:56;;;;;;;;;;;;;;;24.29;47.94;93850.78;4950059;28;7239;-61
2022/11/15 05:11:28;;;;;;;;;;;;;;;24.29;47.71;93848.78;4973189;28;7344;-61
2022/11/15 05:13:57;;;;;;;;;;;;;;;24.29;46.95;93853.53;4971146;28;7308;-61
2022/11/15 05:16:34;;;;;;;;;;;;;;;24.28;47.20;93858.25;4972260;28;7093;-62
2022/11/15 05:19:06;;;;;;;;;;;;;;;24.31;47.11;93859.25;4955616;28;9027;-61
2022/11/15 05:22:01;;;;;;;;;;;;;;;24.30;46.94;93855.75;4967856;28;7331;-61
2022/11/15 05:24:38;;;;;;;;;;;;;;;24.28;47.37;93850.03;4903337;29;9418;-61
2022/11/15 05:27:07;;;;;;;;;;;;;;;24.29;47.31;93843.28;4889404;29;7509;-61
2022/11/15 05:29:48;;;;;;;;;;;;;;;24.29;46.91;93835.03;4875224;29;9251;-61
2022/11/15 05:32:23;;;;;;;;;;;;;;;24.29;47.47;93832.28;4870707;29;7224;-61
2022/11/15 05:34:59;;;;;;;;;;;;;;;24.28;47.13;93828.03;4873498;29;7570;-61
2022/11/15 05:37:25;;;;;;;;;;;;;;;24.30;47.78;93828.25;4873257;29;7458;-61
2022/11/15 05:39:54;;;;;;;;;;;;;;;24.29;47.62;93826.78;4890454;29;7339;-61
2022/11/15 05:42:20;;;;;;;;;;;;;;;24.33;47.53;93826.50;4883172;29;7014;-61
2022/11/15 05:44:49;;;;;;;;;;;;;;;24.33;47.10;93821.75;4892835;29;9119;-61
2022/11/15 05:47:39;;;;;;;;;;;;;;;24.32;47.44;93831.25;4895428;29;9026;-61
2022/11/15 05:50:06;;;;;;;;;;;;;;;24.33;47.85;93827.25;4894275;29;6910;-61
2022/11/15 05:52:37;;;;;;;;;;;;;;;24.32;48.47;93819.50;4894422;29;9420;-61
2022/11/15 05:55:08;;;;;;;;;;;;;;;24.33;47.99;93821.00;4893835;29;8937;-61
2022/11/15 05:57:35;;;;;;;;;;;;;;;24.37;48.62;93818.69;4892432;29;7029;-61
2022/11/15 06:00:03;;;;;;;;;;;;;;;24.43;47.97;93825.63;4876955;29;7285;-61
2022/11/15 06:02:32;;;;;;;;;;;;;;;24.44;47.76;93820.88;4955908;28;7019;-61
2022/11/15 06:04:57;;;;;;;;;;;;;;;24.47;47.50;93820.56;4971622;28;9591;-61
2022/11/15 06:07:26;;;;;;;;;;;;;;;24.50;47.55;93813.31;4970987;28;9106;-61
2022/11/15 06:09:56;;;;;;;;;;;;;;;24.54;47.43;93822.00;4959652;28;7296;-61
2022/11/15 06:12:30;;;;;;;;;;;;;;;24.52;46.77;93817.03;4973096;28;7053;-61
2022/11/15 06:14:56;;;;;;;;;;;;;;;24.57;48.55;93823.72;4969986;28;9215;-61
2022/11/15 06:17:24;;;;;;;;;;;;;;;24.55;47.18;93821.50;4970552;28;7012;-61
2022/11/15 06:19:50;;;;;;;;;;;;;;;24.55;46.87;93826.25;4932898;28;9006;-61
2022/11/15 06:22:17;;;;;;;;;;;;;;;24.51;46.25;93823.78;4954716;28;9389;-61
2022/11/15 06:25:15;;;;;;;;;;;;;;;24.51;46.38;93821.03;4973368;28;7495;-61
2022/11/15 06:28:07;;;;;;;;;;;;;;;24.49;47.48;93814.59;4894112;29;7042;-61
2022/11/15 06:31:10;;;;;;;;;;;;;;;24.53;48.17;93813.00;4874722;29;8208;-61
2022/11/15 06:33:40;;;;;;;;;;;;;;;24.52;46.79;93810.78;4823720;29;7361;-61
2022/11/15 06:36:13;;;;;;;;;;;;;;;24.50;46.82;93805.06;4838314;29;7462;-61
2022/11/15 06:38:39;;;;;;;;;;;;;;;24.46;46.83;93805.38;4838947;29;7159;-61
2022/11/15 06:41:09;;;;;;;;;;;;;;;24.50;47.39;93807.81;4820338;29;6861;-61
2022/11/15 06:43:42;;;;;;;;;;;;;;;24.46;47.07;93802.63;4822261;29;7225;-61
2022/11/15 06:46:23;;;;;;;;;;;;;;;24.44;46.94;93810.63;4837937;29;9762;-61
2022/11/15 06:48:52;;;;;;;;;;;;;;;24.44;46.69;93805.13;4838776;29;7535;-61
2022/11/15 06:51:37;;;;;;;;;;;;;;;24.42;46.93;93799.41;4835244;29;7032;-62
2022/11/15 06:54:12;;;;;;;;;;;;;;;24.44;46.69;93809.88;4833939;29;8915;-61
2022/11/15 06:56:38;;;;;;;;;;;;;;;24.41;46.78;93803.41;4821929;29;7267;-60
2022/11/15 06:59:04;;;;;;;;;;;;;;;24.41;47.04;93800.66;4823148;29;8248;-61
2022/11/15 07:01:32;;;;;;;;;;;;;;;24.40;47.06;93807.41;4828288;29;7490;-61
2022/11/15 07:03:58;;;;;;;;;;;;;;;24.37;47.09;93802.97;4854166;29;7062;-61
2022/11/15 07:06:29;;;;;;;;;;;;;;;24.41;46.87;93810.91;4879737;28;7245;-61
2022/11/15 07:08:57;;;;;;;;;;;;;;;24.44;47.27;93796.88;4967024;28;7512;-61
2022/11/15 07:11:25;;;;;;;;;;;;;;;24.49;46.89;93803.59;4951907;28;7050;-61
2022/11/15 07:13:59;;;;;;;;;;;;;;;24.53;46.59;93799.25;4967276;28;8950;-61
2022/11/15 07:16:29;;;;;;;;;;;;;;;24.56;46.14;93803.72;4952890;28;7480;-61
2022/11/15 07:19:08;;;;;;;;;;;;;;;24.58;45.87;93798.47;4955179;28;9735;-61
2022/11/15 07:21:34;;;;;;;;;;;;;;;24.55;44.79;93804.25;4974235;28;8178;-61
2022/11/15 07:24:07;;;;;;;;;;;;;;;24.52;45.20;93803.28;4974129;28;7255;-61
2022/11/15 07:26:33;;;;;;;;;;;;;;;24.48;45.52;93811.09;4971151;28;7216;-61
2022/11/15 07:29:01;;;;;;;;;;;;;;;24.49;45.48;93806.34;4956346;28;8806;-61
2022/11/15 07:31:29;;;;;;;;;;;;;;;24.46;45.14;93802.63;4969794;28;8109;-61
2022/11/15 07:33:56;;;;;;;;;;;;;;;24.45;45.28;93811.34;4976406;28;9287;-61
2022/11/15 07:36:22;;;;;;;;;;;;;;;24.43;45.85;93800.88;4962564;28;7342;-61
2022/11/15 07:38:48;;;;;;;;;;;;;;;24.41;45.58;93797.91;4957588;28;7014;-61
2022/11/15 07:41:14;;;;;;;;;;;;;;;24.40;45.63;93803.94;4959639;28;7011;-61
2022/11/15 07:43:51;;;;;;;;;;;;;;;24.39;45.71;93807.94;4952783;28;8648;-61
2022/11/15 07:46:17;;;;;;;;;;;;;;;24.40;46.29;93818.41;4958164;28;9244;-61
2022/11/15 07:48:49;;;;;;;;;;;;;;;24.42;46.07;93815.91;4938560;28;8724;-61
2022/11/15 07:51:24;;;;;;;;;;;;;;;24.47;45.99;93806.09;4965426;28;7072;-61
2022/11/15 07:53:53;;;;;;;;;;;;;;;24.53;45.99;93807.50;4956910;28;9293;-60
2022/11/15 07:56:28;;;;;;;;;;;;;;;24.56;46.00;93809.22;4974604;28;9479;-61
2022/11/15 07:58:54;;;;;;;;;;;;;;;24.60;45.42;93806.19;4958973;28;8998;-61
2022/11/15 08:01:22;;;;;;;;;;;;;;;24.60;44.62;93803.44;4955999;28;10167;-61
2022/11/15 08:03:48;;;;;;;;;;;;;;;24.61;44.62;93804.94;4975273;28;8749;-61
2022/11/15 08:06:21;;;;;;;;;;;;;;;24.62;45.05;93809.19;4951873;28;10732;-61
2022/11/15 08:09:08;;;;;;;;;;;;;;;24.64;44.46;93801.88;4976885;28;7249;-61
2022/11/15 08:11:34;;;;;;;;;;;;;;;24.63;44.47;93802.41;4950710;28;7292;-61
2022/11/15 08:14:09;;;;;;;;;;;;;;;24.58;43.67;93798.47;4959814;28;7226;-61
2022/11/15 08:16:47;;;;;;;;;;;;;;;24.54;43.72;93795.25;4956827;28;7305;-61
2022/11/15 08:19:15;;;;;;;;;;;;;;;24.51;44.51;93785.28;4972302;28;7013;-61
2022/11/15 08:21:43;;;;;;;;;;;;;;;24.51;44.44;93788.03;4953840;28;7970;-61
2022/11/15 08:24:12;;;;;;;;;;;;;;;24.51;44.18;93788.03;4945226;28;9337;-60
2022/11/15 08:26:51;;;;;;;;;;;;;;;24.50;44.63;93781.06;4974491;28;7218;-61
2022/11/15 08:29:26;;;;;;;;;;;;;;;24.50;44.73;93780.31;4958717;28;7529;-61
2022/11/15 08:31:56;;;;;;;;;;;;;;;24.48;44.01;93789.09;4959471;28;9427;-61
2022/11/15 08:34:36;;;;;;;;;;;;;;;24.47;44.74;93787.59;4956293;28;8758;-61
2022/11/15 08:37:05;;;;;;;;;;;;;;;24.46;44.73;93780.63;4954579;28;8557;-61
2022/11/15 08:39:32;;;;;;;;;;;;;;;24.47;44.63;93784.84;4968798;28;7106;-61
2022/11/15 08:42:01;;;;;;;;;;;;;;;24.46;44.94;93780.63;4971270;28;7468;-61
2022/11/15 08:44:34;;;;;;;;;;;;;;;24.47;45.21;93778.59;4919410;28;9350;-62
2022/11/15 08:47:01;;;;;;;;;;;;;;;24.47;45.30;93775.84;4967849;28;9183;-61
2022/11/15 08:49:42;;;;;;;;;;;;;;;24.47;44.93;93776.59;4972068;28;7638;-59
2022/11/15 08:52:13;;;;;;;;;;;;;;;24.48;44.87;93778.09;4947857;28;7745;-59
2022/11/15 08:54:45;;;;;;;;;;;;;;;24.48;45.50;93782.84;4956176;28;9106;-59
2022/11/15 08:57:11;;;;;;;;;;;;;;;24.48;45.56;93780.09;4946508;28;7127;-59
2022/11/15 08:59:37;;;;;;;;;;;;;;;24.49;45.41;93776.81;4955752;28;7203;-60
2022/11/15 09:02:11;;;;;;;;;;;;;;;24.49;45.36;93782.31;4975024;28;9107;-59
2022/11/15 09:04:40;;;;;;;;;;;;;;;24.48;45.57;93783.59;4958785;28;7242;-59
2022/11/15 09:07:18;;;;;;;;;;;;;;;24.49;45.35;93790.56;4957250;28;7170;-60
2022/11/15 09:09:46;;;;;;;;;;;;;;;24.49;46.17;93795.34;4958014;28;7039;-59
2022/11/15 09:12:14;;;;;;;;;;;;;;;24.47;45.16;93790.34;4973449;28;7195;-60
2022/11/15 09:15:00;;;;;;;;;;;;;;;24.50;45.80;93797.56;4971763;28;9022;-59
2022/11/15 09:17:27;;;;;;;;;;;;;;;24.50;45.51;93799.56;4967634;28;7260;-59
2022/11/15 09:19:53;;;;;;;;;;;;;;;24.49;45.84;93796.06;4958181;28;7130;-59
2022/11/15 09:22:24;;;;;;;;;;;;;;;24.50;46.04;93792.06;4967764;28;7148;-60
2022/11/15 09:24:58;;;;;;;;;;;;;;;24.50;45.72;93786.56;4973509;28;9218;-60
2022/11/15 09:27:29;;;;;;;;;;;;;;;24.52;45.51;93797.78;4974607;28;7601;-59
2022/11/15 09:29:56;;;;;;;;;;;;;;;24.52;45.46;93788.78;4958663;28;7511;-60
2022/11/15 09:32:23;;;;;;;;;;;;;;;24.53;45.49;93785.50;4957624;28;9369;-60
2022/11/15 09:34:55;;;;;;;;;;;;;;;24.54;46.26;93780.75;4968384;28;7383;-60
2022/11/15 09:37:23;;;;;;;;;;;;;;;24.54;45.50;93786.25;4965065;28;7431;-59
2022/11/15 09:39:53;;;;;;;;;;;;;;;24.54;45.12;93792.50;4971266;28;9095;-59
2022/11/15 09:42:43;;;;;;;;;;;;;;;24.58;45.17;93795.72;4972032;28;8504;-59
2022/11/15 09:45:36;;;;;;;;;;;;;;;24.59;45.60;93797.22;4971271;28;8585;-60
2022/11/15 09:48:17;;;;;;;;;;;;;;;24.61;45.14;93794.69;4962257;28;9112;-59
2022/11/15 09:50:48;;;;;;;;;;;;;;;24.61;45.48;93797.44;4966615;28;7285;-60
2022/11/15 09:53:26;;;;;;;;;;;;;;;24.62;45.33;93798.91;4957524;28;7232;-59
2022/11/15 09:56:12;;;;;;;;;;;;;;;24.62;45.84;93793.41;4969478;28;7364;-60
2022/11/15 09:59:10;;;;;;;;;;;;;;;24.59;45.95;93790.97;4935259;28;7312;-59
2022/11/15 10:02:08;;;;;;;;;;;;;;;24.57;45.90;93790.75;4944847;28;7026;-60
2022/11/15 10:04:37;;;;;;;;;;;;;;;24.55;45.91;93796.75;4898026;29;7658;-60
2022/11/15 10:07:26;;;;;;;;;;;;;;;24.56;46.03;93792.72;4914199;29;7275;-61
2022/11/15 10:10:23;;;;;;;;;;;;;;;24.58;45.76;93792.97;4897563;29;7237;-60
2022/11/15 10:13:17;;;;;;;;;;;;;;;24.60;46.09;93779.44;4905654;29;7299;-61
2022/11/15 10:15:53;;;;;;;;;;;;;;;24.61;45.83;93769.94;4907769;29;7065;-60
2022/11/15 10:18:35;;;;;;;;;;;;;;;24.62;45.96;93770.69;4897191;29;7297;-61
2022/11/15 10:21:21;;;;;;;;;;;;;;;24.63;45.61;93763.91;4913915;29;7046;-61
2022/11/15 10:24:11;;;;;;;;;;;;;;;24.61;45.88;93758.94;4913399;29;7250;-61
2022/11/15 10:26:45;;;;;;;;;;;;;;;24.61;46.05;93760.94;4912107;29;7207;-61
2022/11/15 10:29:46;;;;;;;;;;;;;;;24.61;45.68;93756.19;4907129;29;7335;-61
2022/11/15 10:32:17;;;;;;;;;;;;;;;24.62;46.00;93754.91;4840116;29;10181;-61
2022/11/15 10:34:45;;;;;;;;;;;;;;;24.63;46.44;93756.41;4842327;29;7219;-61
2022/11/15 10:37:13;;;;;;;;;;;;;;;24.62;45.63;93748.69;4856388;29;7448;-60
2022/11/15 10:39:42;;;;;;;;;;;;;;;24.62;45.54;93760.41;4857940;29;7042;-60
2022/11/15 10:42:26;;;;;;;;;;;;;;;24.64;45.78;93765.41;4861456;29;9172;-61
2022/11/15 10:44:52;;;;;;;;;;;;;;;24.65;46.37;93753.88;4873383;29;8958;-60
2022/11/15 10:47:47;;;;;;;;;;;;;;;24.66;45.56;93760.84;4876040;29;7871;-61
2022/11/15 10:50:31;;;;;;;;;;;;;;;24.66;46.34;93755.34;4820025;29;7286;-60
2022/11/15 10:53:15;;;;;;;;;;;;;;;24.65;45.93;93762.13;4821376;29;7043;-61
2022/11/15 10:55:51;;;;;;;;;;;;;;;24.65;46.11;93759.38;4820919;29;7481;-61
2022/11/15 10:58:40;;;;;;;;;;;;;;;24.64;46.07;93755.13;4794970;29;7282;-61
2022/11/15 11:01:12;;;;;;;;;;;;;;;24.65;46.10;93753.13;4817113;29;7328;-61
2022/11/15 11:03:40;;;;;;;;;;;;;;;24.66;46.12;93758.09;4805345;29;8964;-60
2022/11/15 11:06:12;;;;;;;;;;;;;;;24.64;45.50;93752.38;4816746;29;7290;-61
2022/11/15 11:08:39;;;;;;;;;;;;;;;24.64;46.05;93757.16;4845066;29;7272;-61
2022/11/15 11:11:08;;;;;;;;;;;;;;;24.66;45.81;93747.09;4881566;29;8817;-60
2022/11/15 11:13:52;;;;;;;;;;;;;;;24.67;45.53;93750.59;4887352;29;7370;-61
2022/11/15 11:16:48;;;;;;;;;;;;;;;24.66;45.69;93744.34;4876627;29;7572;-61
2022/11/15 11:19:28;;;;;;;;;;;;;;;24.66;46.12;93736.09;4868877;29;8969;-61
2022/11/15 11:22:15;;;;;;;;;;;;;;;24.68;46.08;93722.56;4877847;29;8960;-61
2022/11/15 11:24:46;;;;;;;;;;;;;;;24.68;45.85;93717.06;4892231;29;7270;-61
2022/11/15 11:27:51;;;;;;;;;;;;;;;24.68;46.27;93711.56;4935507;28;7086;-60
2022/11/15 11:30:43;;;;;;;;;;;;;;;24.68;46.31;93703.34;4967734;28;7259;-61
2022/11/15 11:33:34;;;;;;;;;;;;;;;24.68;45.74;93699.84;4955732;28;7333;-61
2022/11/15 11:36:19;;;;;;;;;;;;;;;24.68;46.15;93697.09;4951689;28;7205;-61
2022/11/15 11:39:18;;;;;;;;;;;;;;;24.64;45.88;93689.16;4954973;28;7475;-61
2022/11/15 11:42:00;;;;;;;;;;;;;;;24.62;46.32;93672.41;4964234;28;8979;-61
2022/11/15 11:45:03;;;;;;;;;;;;;;;24.65;45.60;93674.16;4966601;28;7514;-61
2022/11/15 11:48:13;;;;;;;;;;;;;;;24.67;45.97;93668.13;4965656;28;7757;-61
2022/11/15 11:50:44;;;;;;;;;;;;;;;24.66;45.70;93669.38;4887118;29;7431;-61
2022/11/15 11:53:38;;;;;;;;;;;;;;;24.69;45.50;93665.59;4892356;29;7267;-61
2022/11/15 11:56:21;;;;;;;;;;;;;;;24.71;45.91;93663.81;4903434;29;7421;-61
2022/11/15 11:58:48;;;;;;;;;;;;;;;24.71;45.91;93652.06;4890140;29;7362;-61
2022/11/15 12:01:17;;;;;;;;;;;;;;;24.73;46.13;93643.28;4890712;29;7185;-61
2022/11/15 12:03:50;;;;;;;;;;;;;;;24.70;45.38;93640.34;4915203;29;7038;-61
2022/11/15 12:06:31;;;;;;;;;;;;;;;24.70;45.98;93648.56;4886525;29;7142;-61
2022/11/15 12:09:18;;;;;;;;;;;;;;;24.72;45.92;93642.56;4908357;29;7437;-61
2022/11/15 12:12:31;;;;;;;;;;;;;;;24.73;45.63;93625.53;4899294;29;7527;-61
2022/11/15 12:15:21;;;;;;;;;;;;;;;24.71;45.41;93617.06;4838765;29;8005;-61
2022/11/15 12:17:48;;;;;;;;;;;;;;;24.71;45.66;93611.56;4856471;29;7430;-61
2022/11/15 12:20:26;;;;;;;;;;;;;;;24.71;46.10;93613.56;4849902;29;7168;-61
2022/11/15 12:23:18;;;;;;;;;;;;;;;24.71;45.42;93614.31;4855915;29;7551;-61
2022/11/15 12:26:12;;;;;;;;;;;;;;;24.71;45.36;93617.06;4860322;29;7549;-61
2022/11/15 12:28:50;;;;;;;;;;;;;;;24.70;46.39;93615.59;4897752;29;6971;-61
2022/11/15 12:31:27;;;;;;;;;;;;;;;24.70;45.86;93612.09;4869357;29;9438;-61
2022/11/15 12:34:27;;;;;;;;;;;;;;;24.71;45.67;93608.81;4875325;29;7278;-61
2022/11/15 12:37:42;;;;;;;;;;;;;;;24.69;45.58;93602.34;4840808;29;6853;-61
2022/11/15 12:40:31;;;;;;;;;;;;;;;24.70;45.32;93599.09;4842171;29;7193;-61
2022/11/15 12:43:34;;;;;;;;;;;;;;;24.71;46.10;93597.81;4840756;29;7103;-61
2022/11/15 12:46:06;;;;;;;;;;;;;;;24.66;46.21;93595.88;4877276;29;7056;-61
2022/11/15 12:48:53;;;;;;;;;;;;;;;24.66;46.17;93584.88;4889787;29;7629;-61
2022/11/15 12:51:47;;;;;;;;;;;;;;;24.68;45.59;93570.63;4892131;29;7386;-61
2022/11/15 12:54:30;;;;;;;;;;;;;;;24.70;45.85;93565.34;4892330;29;7210;-61
2022/11/15 12:57:09;;;;;;;;;;;;;;;24.73;45.27;93560.81;4893734;29;7206;-61
2022/11/15 12:59:58;;;;;;;;;;;;;;;24.72;45.15;93546.31;4872803;29;8531;-60
2022/11/15 13:02:26;;;;;;;;;;;;;;;24.69;45.62;93544.59;4895254;29;7795;-61
2022/11/15 13:05:18;;;;;;;;;;;;;;;24.69;45.90;93542.59;4895434;29;9098;-61
2022/11/15 13:08:07;;;;;;;;;;;;;;;24.69;45.63;93534.34;4874927;29;8483;-61
2022/11/15 13:10:42;;;;;;;;;;;;;;;24.73;45.76;93527.81;4874852;29;8716;-61
2022/11/15 13:13:43;;;;;;;;;;;;;;;24.72;46.13;93529.81;4922603;28;7193;-60
2022/11/15 13:16:20;;;;;;;;;;;;;;;24.73;46.07;93520.28;4972182;28;7256;-60
2022/11/15 13:18:54;;;;;;;;;;;;;;;24.75;46.08;93517.03;4972331;28;8549;-61
2022/11/15 13:24:17;;;;;;;;;;;;;;;24.76;45.49;93502.00;4974767;28;8884;-61
2022/11/15 13:26:45;;;;;;;;;;;;;;;24.76;45.91;93507.50;4953757;28;7123;-60
2022/11/15 13:29:21;;;;;;;;;;;;;;;24.76;45.99;93499.25;4958773;28;7090;-61
2022/11/15 13:31:50;;;;;;;;;;;;;;;24.75;45.53;93489.53;4972569;28;9044;-61
2022/11/15 13:34:36;;;;;;;;;;;;;;;24.75;45.96;93489.53;4957471;28;9055;-60
2022/11/15 13:37:05;;;;;;;;;;;;;;;24.73;45.67;93488.03;4974652;28;7028;-61
2022/11/15 13:39:37;;;;;;;;;;;;;;;24.75;45.86;93481.28;4958351;28;7394;-61
2022/11/15 13:42:15;;;;;;;;;;;;;;;24.75;46.24;93473.75;4979974;28;7210;-60
2022/11/15 13:45:18;;;;;;;;;;;;;;;24.78;46.22;93477.47;4952279;28;9031;-61
2022/11/15 13:48:06;;;;;;;;;;;;;;;24.78;46.11;93474.72;4923669;29;7275;-61
2022/11/15 13:50:47;;;;;;;;;;;;;;;24.78;45.99;93467.22;4907187;29;9766;-61
2022/11/15 13:53:27;;;;;;;;;;;;;;;24.77;45.51;93463.00;4908602;29;7030;-60
2022/11/15 13:56:06;;;;;;;;;;;;;;;24.73;45.64;93468.78;4928492;29;9506;-60
2022/11/15 13:58:39;;;;;;;;;;;;;;;24.73;45.84;93456.31;4915734;29;7185;-60
2022/11/15 14:01:06;;;;;;;;;;;;;;;24.70;45.65;93453.34;4914267;29;9709;-61